sensor_id;sensor_type;location;lat;lon;timestamp;pressure;altitude;pressure_sealevel;temperature;humidity
54038;BME280;39954;48.844;9.726;2023-07-02T00:00:17;95543.28;;;13.73;100.00
54038;BME280;39954;48.844;9.726;2023-07-02T00:01:20;95542.06;;;13.77;100.00
54038;BME280;39954;48.844;9.726;2023-07-02T00:02:24;95535.88;;;13.66;100.00
54038;BME280;39954;48.844;9.726;2023-07-02T00:03:27;95536.50;;;13.70;100.00
54038;BME280;39954;48.844;9.726;2023-07-02T00:04:31;95540.41;;;13.64;100.00
54038;BME280;39954;48.844;9.726;2023-07-02T00:05:34;95527.84;;;13.58;100.00
54038;BME280;39954;48.844;9.726;2023-07-02T00:06:39;95534.72;;;13.59;100.00
54038;BME280;39954;48.844;9.726;2023-07-02T00:07:42;95531.38;;;13.57;100.00
54038;BME280;39954;48.844;9.726;2023-07-02T00:08:47;95531.63;;;13.54;100.00
54038;BME280;39954;48.844;9.726;2023-07-02T00:09:51;95529.50;;;13.48;100.00
54038;BME280;39954;48.844;9.726;2023-07-02T00:10:56;95526.41;;;13.43;100.00
54038;BME280;39954;48.844;9.726;2023-07-02T00:11:58;95529.75;;;13.45;100.00
54038;BME280;39954;48.844;9.726;2023-07-02T00:13:03;95529.97;;;13.42;100.00
54038;BME280;39954;48.844;9.726;2023-07-02T00:14:06;95533.75;;;13.38;100.00
54038;BME280;39954;48.844;9.726;2023-07-02T00:15:10;95535.88;;;13.33;100.00
54038;BME280;39954;48.844;9.726;2023-07-02T00:16:13;95537.66;;;13.32;100.00
54038;BME280;39954;48.844;9.726;2023-07-02T00:17:17;95534.94;;;13.34;100.00
54038;BME280;39954;48.844;9.726;2023-07-02T00:18:20;95533.75;;;13.27;100.00
54038;BME280;39954;48.844;9.726;2023-07-02T00:19:25;95541.06;;;13.21;100.00
54038;BME280;39954;48.844;9.726;2023-07-02T00:20:27;95535.47;;;13.15;100.00
54038;BME280;39954;48.844;9.726;2023-07-02T00:21:36;95533.22;;;13.10;100.00
54038;BME280;39954;48.844;9.726;2023-07-02T00:22:38;95540.09;;;13.11;100.00
54038;BME280;39954;48.844;9.726;2023-07-02T00:23:43;95544.84;;;13.06;100.00
54038;BME280;39954;48.844;9.726;2023-07-02T00:24:45;95548.50;;;13.04;100.00
54038;BME280;39954;48.844;9.726;2023-07-02T00:25:55;95534.88;;;13.00;100.00
54038;BME280;39954;48.844;9.726;2023-07-02T00:26:57;95545.63;;;12.95;100.00
54038;BME280;39954;48.844;9.726;2023-07-02T00:28:02;95547.28;;;12.96;100.00
54038;BME280;39954;48.844;9.726;2023-07-02T00:29:04;95549.03;;;12.85;100.00
54038;BME280;39954;48.844;9.726;2023-07-02T00:30:11;95554.25;;;12.85;100.00
54038;BME280;39954;48.844;9.726;2023-07-02T00:31:13;95542.53;;;12.90;100.00
54038;BME280;39954;48.844;9.726;2023-07-02T00:32:18;95547.63;;;12.81;100.00
54038;BME280;39954;48.844;9.726;2023-07-02T00:33:20;95546.78;;;12.80;100.00
54038;BME280;39954;48.844;9.726;2023-07-02T00:34:26;95545.84;;;12.81;100.00
54038;BME280;39954;48.844;9.726;2023-07-02T00:35:28;95547.13;;;12.75;100.00
54038;BME280;39954;48.844;9.726;2023-07-02T00:36:33;95547.13;;;12.75;100.00
54038;BME280;39954;48.844;9.726;2023-07-02T00:37:35;95549.13;;;12.72;100.00
54038;BME280;39954;48.844;9.726;2023-07-02T00:38:41;95555.19;;;12.72;100.00
54038;BME280;39954;48.844;9.726;2023-07-02T00:39:44;95547.69;;;12.68;100.00
54038;BME280;39954;48.844;9.726;2023-07-02T00:40:48;95550.66;;;12.63;100.00
54038;BME280;39954;48.844;9.726;2023-07-02T00:41:53;95553.13;;;12.65;100.00
54038;BME280;39954;48.844;9.726;2023-07-02T00:42:58;95554.78;;;12.66;100.00
54038;BME280;39954;48.844;9.726;2023-07-02T00:44:00;95567.94;;;12.64;100.00
54038;BME280;39954;48.844;9.726;2023-07-02T00:45:06;95569.09;;;12.60;100.00
54038;BME280;39954;48.844;9.726;2023-07-02T00:46:11;95564.59;;;12.62;100.00
54038;BME280;39954;48.844;9.726;2023-07-02T00:47:19;95567.44;;;12.59;100.00
54038;BME280;39954;48.844;9.726;2023-07-02T00:48:21;95570.78;;;12.61;100.00
54038;BME280;39954;48.844;9.726;2023-07-02T00:49:26;95573.25;;;12.63;100.00
54038;BME280;39954;48.844;9.726;2023-07-02T00:50:29;95570.53;;;12.64;100.00
54038;BME280;39954;48.844;9.726;2023-07-02T00:51:33;95576.72;;;12.63;100.00
54038;BME280;39954;48.844;9.726;2023-07-02T00:52:35;95574.19;;;12.62;100.00
54038;BME280;39954;48.844;9.726;2023-07-02T00:53:40;95577.53;;;12.64;100.00
54038;BME280;39954;48.844;9.726;2023-07-02T00:54:42;95575.31;;;12.70;100.00
54038;BME280;39954;48.844;9.726;2023-07-02T00:55:47;95568.06;;;12.74;100.00
54038;BME280;39954;48.844;9.726;2023-07-02T00:56:49;95563.00;;;12.72;100.00
54038;BME280;39954;48.844;9.726;2023-07-02T00:57:57;95565.75;;;12.82;100.00
54038;BME280;39954;48.844;9.726;2023-07-02T00:58:59;95569.31;;;12.81;100.00
54038;BME280;39954;48.844;9.726;2023-07-02T01:00:05;95565.88;;;12.81;100.00
54038;BME280;39954;48.844;9.726;2023-07-02T01:01:08;95564.31;;;12.78;100.00
54038;BME280;39954;48.844;9.726;2023-07-02T01:02:13;95569.41;;;12.80;100.00
54038;BME280;39954;48.844;9.726;2023-07-02T01:03:15;95562.81;;;12.87;100.00
54038;BME280;39954;48.844;9.726;2023-07-02T01:04:20;95566.13;;;12.89;100.00
54038;BME280;39954;48.844;9.726;2023-07-02T01:05:29;95563.03;;;12.84;100.00
54038;BME280;39954;48.844;9.726;2023-07-02T01:06:37;95564.19;;;12.80;100.00
54038;BME280;39954;48.844;9.726;2023-07-02T01:07:43;95567.38;;;12.72;100.00
54038;BME280;39954;48.844;9.726;2023-07-02T01:08:48;95563.72;;;12.74;100.00
54038;BME280;39954;48.844;9.726;2023-07-02T01:09:50;95560.16;;;12.75;100.00
54038;BME280;39954;48.844;9.726;2023-07-02T01:10:56;95567.72;;;12.67;100.00
54038;BME280;39954;48.844;9.726;2023-07-02T01:12:00;95569.38;;;12.68;100.00
54038;BME280;39954;48.844;9.726;2023-07-02T01:13:11;95565.25;;;12.77;100.00
54038;BME280;39954;48.844;9.726;2023-07-02T01:14:19;95561.53;;;12.68;100.00
54038;BME280;39954;48.844;9.726;2023-07-02T01:15:26;95571.28;;;12.66;100.00
54038;BME280;39954;48.844;9.726;2023-07-02T01:16:30;95570.03;;;12.59;100.00
54038;BME280;39954;48.844;9.726;2023-07-02T01:17:35;95569.81;;;12.62;100.00
54038;BME280;39954;48.844;9.726;2023-07-02T01:18:43;95573.16;;;12.64;100.00
54038;BME280;39954;48.844;9.726;2023-07-02T01:19:53;95576.25;;;12.69;100.00
54038;BME280;39954;48.844;9.726;2023-07-02T01:21:01;95572.91;;;12.67;100.00
54038;BME280;39954;48.844;9.726;2023-07-02T01:22:08;95579.78;;;12.68;100.00
54038;BME280;39954;48.844;9.726;2023-07-02T01:23:11;95564.88;;;12.70;100.00
54038;BME280;39954;48.844;9.726;2023-07-02T01:24:17;95571.03;;;12.69;100.00
54038;BME280;39954;48.844;9.726;2023-07-02T01:25:19;95573.41;;;12.72;100.00
54038;BME280;39954;48.844;9.726;2023-07-02T01:26:28;95581.25;;;12.72;100.00
54038;BME280;39954;48.844;9.726;2023-07-02T01:27:31;95577.22;;;12.80;100.00
54038;BME280;39954;48.844;9.726;2023-07-02T01:28:37;95573.69;;;12.81;100.00
54038;BME280;39954;48.844;9.726;2023-07-02T01:29:40;95571.81;;;12.83;100.00
54038;BME280;39954;48.844;9.726;2023-07-02T01:30:46;95573.34;;;12.85;100.00
54038;BME280;39954;48.844;9.726;2023-07-02T01:31:49;95567.91;;;12.88;100.00
54038;BME280;39954;48.844;9.726;2023-07-02T01:32:54;95576.56;;;12.89;100.00
54038;BME280;39954;48.844;9.726;2023-07-02T01:33:56;95565.19;;;12.90;100.00
54038;BME280;39954;48.844;9.726;2023-07-02T01:35:04;95579.66;;;12.94;100.00
54038;BME280;39954;48.844;9.726;2023-07-02T01:36:06;95575.28;;;12.94;100.00
54038;BME280;39954;48.844;9.726;2023-07-02T01:37:11;95576.09;;;12.95;100.00
54038;BME280;39954;48.844;9.726;2023-07-02T01:38:13;95571.63;;;12.97;100.00
54038;BME280;39954;48.844;9.726;2023-07-02T01:39:19;95571.63;;;12.97;100.00
54038;BME280;39954;48.844;9.726;2023-07-02T01:40:21;95573.38;;;12.96;100.00
54038;BME280;39954;48.844;9.726;2023-07-02T01:41:25;95565.69;;;12.95;100.00
54038;BME280;39954;48.844;9.726;2023-07-02T01:42:28;95561.06;;;12.98;100.00
54038;BME280;39954;48.844;9.726;2023-07-02T01:43:32;95571.63;;;12.97;100.00
54038;BME280;39954;48.844;9.726;2023-07-02T01:44:35;95567.31;;;12.96;100.00
54038;BME280;39954;48.844;9.726;2023-07-02T01:45:41;95576.94;;;12.95;100.00
54038;BME280;39954;48.844;9.726;2023-07-02T01:46:43;95581.91;;;12.98;100.00
54038;BME280;39954;48.844;9.726;2023-07-02T01:47:50;95577.53;;;12.99;100.00
54038;BME280;39954;48.844;9.726;2023-07-02T01:48:53;95578.25;;;13.01;100.00
54038;BME280;39954;48.844;9.726;2023-07-02T01:49:57;95572.94;;;13.03;100.00
54038;BME280;39954;48.844;9.726;2023-07-02T01:51:02;95577.19;;;13.04;100.00
54038;BME280;39954;48.844;9.726;2023-07-02T01:52:07;95572.81;;;13.04;100.00
54038;BME280;39954;48.844;9.726;2023-07-02T01:53:09;95575.31;;;13.06;100.00
54038;BME280;39954;48.844;9.726;2023-07-02T01:54:14;95571.50;;;13.10;100.00
54038;BME280;39954;48.844;9.726;2023-07-02T01:55:16;95577.47;;;13.12;100.00
54038;BME280;39954;48.844;9.726;2023-07-02T01:56:21;95584.22;;;13.14;100.00
54038;BME280;39954;48.844;9.726;2023-07-02T01:57:23;95581.63;;;13.14;100.00
54038;BME280;39954;48.844;9.726;2023-07-02T01:58:28;95579.94;;;13.13;100.00
54038;BME280;39954;48.844;9.726;2023-07-02T01:59:30;95580.06;;;13.12;100.00
54038;BME280;39954;48.844;9.726;2023-07-02T02:00:35;95582.78;;;13.10;100.00
54038;BME280;39954;48.844;9.726;2023-07-02T02:01:38;95589.78;;;13.10;100.00
54038;BME280;39954;48.844;9.726;2023-07-02T02:02:43;95592.28;;;13.11;100.00
54038;BME280;39954;48.844;9.726;2023-07-02T02:03:46;95591.09;;;13.15;100.00
54038;BME280;39954;48.844;9.726;2023-07-02T02:04:50;95597.28;;;13.14;100.00
54038;BME280;39954;48.844;9.726;2023-07-02T02:05:53;95598.44;;;13.10;100.00
54038;BME280;39954;48.844;9.726;2023-07-02T02:07:00;95591.66;;;13.08;100.00
54038;BME280;39954;48.844;9.726;2023-07-02T02:08:02;95600.44;;;13.07;100.00
54038;BME280;39954;48.844;9.726;2023-07-02T02:09:08;95598.00;;;13.16;100.00
54038;BME280;39954;48.844;9.726;2023-07-02T02:10:11;95598.56;;;13.09;100.00
54038;BME280;39954;48.844;9.726;2023-07-02T02:11:16;95596.88;;;13.08;100.00
54038;BME280;39954;48.844;9.726;2023-07-02T02:12:18;95590.84;;;13.07;100.00
54038;BME280;39954;48.844;9.726;2023-07-02T02:13:23;95590.34;;;13.02;100.00
54038;BME280;39954;48.844;9.726;2023-07-02T02:14:25;95589.50;;;13.02;100.00
54038;BME280;39954;48.844;9.726;2023-07-02T02:15:30;95587.03;;;13.00;100.00
54038;BME280;39954;48.844;9.726;2023-07-02T02:16:32;95589.88;;;12.97;100.00
54038;BME280;39954;48.844;9.726;2023-07-02T02:17:38;95583.34;;;12.91;100.00
54038;BME280;39954;48.844;9.726;2023-07-02T02:18:40;95582.72;;;12.88;100.00
54038;BME280;39954;48.844;9.726;2023-07-02T02:19:45;95571.59;;;12.86;100.00
54038;BME280;39954;48.844;9.726;2023-07-02T02:20:47;95571.81;;;12.83;100.00
54038;BME280;39954;48.844;9.726;2023-07-02T02:21:52;95576.16;;;12.82;100.00
54038;BME280;39954;48.844;9.726;2023-07-02T02:22:57;95574.53;;;12.81;100.00
54038;BME280;39954;48.844;9.726;2023-07-02T02:24:01;95577.41;;;12.89;100.00
54038;BME280;39954;48.844;9.726;2023-07-02T02:25:04;95575.59;;;12.90;100.00
54038;BME280;39954;48.844;9.726;2023-07-02T02:26:09;95575.13;;;12.85;100.00
54038;BME280;39954;48.844;9.726;2023-07-02T02:27:11;95571.09;;;12.81;100.00
54038;BME280;39954;48.844;9.726;2023-07-02T02:28:16;95574.75;;;12.78;100.00
54038;BME280;39954;48.844;9.726;2023-07-02T02:29:18;95577.69;;;12.73;100.00
54038;BME280;39954;48.844;9.726;2023-07-02T02:30:23;95583.94;;;12.71;100.00
54038;BME280;39954;48.844;9.726;2023-07-02T02:31:25;95580.75;;;12.67;100.00
54038;BME280;39954;48.844;9.726;2023-07-02T02:32:30;95577.31;;;12.67;100.00
54038;BME280;39954;48.844;9.726;2023-07-02T02:33:33;95581.06;;;12.63;100.00
54038;BME280;39954;48.844;9.726;2023-07-02T02:34:37;95582.13;;;12.60;100.00
54038;BME280;39954;48.844;9.726;2023-07-02T02:35:40;95579.66;;;12.59;100.00
54038;BME280;39954;48.844;9.726;2023-07-02T02:36:44;95579.03;;;12.55;100.00
54038;BME280;39954;48.844;9.726;2023-07-02T02:37:46;95587.91;;;12.52;100.00
54038;BME280;39954;48.844;9.726;2023-07-02T02:38:54;95589.78;;;12.50;100.00
54038;BME280;39954;48.844;9.726;2023-07-02T02:39:56;95589.28;;;12.45;100.00
54038;BME280;39954;48.844;9.726;2023-07-02T02:41:01;95591.78;;;12.47;100.00
54038;BME280;39954;48.844;9.726;2023-07-02T02:42:04;95590.09;;;12.46;100.00
54038;BME280;39954;48.844;9.726;2023-07-02T02:43:09;95592.41;;;12.50;100.00
54038;BME280;39954;48.844;9.726;2023-07-02T02:44:11;95597.00;;;12.47;100.00
54038;BME280;39954;48.844;9.726;2023-07-02T02:45:16;95595.31;;;12.46;100.00
54038;BME280;39954;48.844;9.726;2023-07-02T02:46:20;95590.69;;;12.38;100.00
54038;BME280;39954;48.844;9.726;2023-07-02T02:47:26;95598.91;;;12.32;100.00
54038;BME280;39954;48.844;9.726;2023-07-02T02:48:28;95592.06;;;12.31;100.00
54038;BME280;39954;48.844;9.726;2023-07-02T02:49:32;95588.72;;;12.29;100.00
54038;BME280;39954;48.844;9.726;2023-07-02T02:50:35;95587.66;;;12.31;100.00
54038;BME280;39954;48.844;9.726;2023-07-02T02:51:43;95591.31;;;12.29;100.00
54038;BME280;39954;48.844;9.726;2023-07-02T02:52:45;95592.59;;;12.23;100.00
54038;BME280;39954;48.844;9.726;2023-07-02T02:53:49;95590.94;;;12.22;100.00
54038;BME280;39954;48.844;9.726;2023-07-02T02:54:54;95588.13;;;12.25;100.00
54038;BME280;39954;48.844;9.726;2023-07-02T02:55:59;95587.38;;;12.23;100.00
54038;BME280;39954;48.844;9.726;2023-07-02T02:57:01;95591.16;;;12.19;100.00
54038;BME280;39954;48.844;9.726;2023-07-02T02:58:06;95587.09;;;12.15;100.00
54038;BME280;39954;48.844;9.726;2023-07-02T02:59:08;95595.75;;;12.16;100.00
54038;BME280;39954;48.844;9.726;2023-07-02T03:00:14;95595.13;;;12.12;100.00
54038;BME280;39954;48.844;9.726;2023-07-02T03:01:16;95595.13;;;12.12;100.00
54038;BME280;39954;48.844;9.726;2023-07-02T03:02:20;95589.00;;;12.13;100.00
54038;BME280;39954;48.844;9.726;2023-07-02T03:03:23;95592.31;;;12.15;100.00
54038;BME280;39954;48.844;9.726;2023-07-02T03:04:28;95588.56;;;12.19;100.00
54038;BME280;39954;48.844;9.726;2023-07-02T03:05:30;95584.56;;;12.26;100.00
54038;BME280;39954;48.844;9.726;2023-07-02T03:06:35;95588.41;;;12.34;100.00
54038;BME280;39954;48.844;9.726;2023-07-02T03:07:37;95584.44;;;12.41;100.00
54038;BME280;39954;48.844;9.726;2023-07-02T03:08:42;95585.94;;;12.43;100.00
54038;BME280;39954;48.844;9.726;2023-07-02T03:09:44;95583.84;;;12.48;100.00
54038;BME280;39954;48.844;9.726;2023-07-02T03:10:52;95581.16;;;12.50;100.00
54038;BME280;39954;48.844;9.726;2023-07-02T03:11:54;95580.09;;;12.52;100.00
54038;BME280;39954;48.844;9.726;2023-07-02T03:12:59;95574.88;;;12.52;100.00
54038;BME280;39954;48.844;9.726;2023-07-02T03:14:01;95576.91;;;12.60;100.00
54038;BME280;39954;48.844;9.726;2023-07-02T03:15:07;95583.69;;;12.63;100.00
54038;BME280;39954;48.844;9.726;2023-07-02T03:16:10;95587.75;;;12.67;100.00
54038;BME280;39954;48.844;9.726;2023-07-02T03:17:14;95585.84;;;12.69;100.00
54038;BME280;39954;48.844;9.726;2023-07-02T03:18:16;95590.94;;;12.70;100.00
54038;BME280;39954;48.844;9.726;2023-07-02T03:19:21;95586.22;;;12.75;100.00
54038;BME280;39954;48.844;9.726;2023-07-02T03:20:24;95597.63;;;12.74;100.00
54038;BME280;39954;48.844;9.726;2023-07-02T03:21:29;95591.66;;;12.72;100.00
54038;BME280;39954;48.844;9.726;2023-07-02T03:22:31;95592.50;;;12.73;100.00
54038;BME280;39954;48.844;9.726;2023-07-02T03:23:36;95592.41;;;12.74;100.00
54038;BME280;39954;48.844;9.726;2023-07-02T03:24:38;95592.41;;;12.74;100.00
54038;BME280;39954;48.844;9.726;2023-07-02T03:25:43;95593.31;;;12.73;100.00
54038;BME280;39954;48.844;9.726;2023-07-02T03:26:48;95591.44;;;12.75;100.00
54038;BME280;39954;48.844;9.726;2023-07-02T03:27:52;95588.84;;;12.75;100.00
54038;BME280;39954;48.844;9.726;2023-07-02T03:28:55;95590.38;;;12.78;100.00
54038;BME280;39954;48.844;9.726;2023-07-02T03:29:59;95584.13;;;12.81;100.00
54038;BME280;39954;48.844;9.726;2023-07-02T03:31:02;95591.22;;;12.79;100.00
54038;BME280;39954;48.844;9.726;2023-07-02T03:32:08;95586.72;;;12.81;100.00
54038;BME280;39954;48.844;9.726;2023-07-02T03:33:10;95584.63;;;12.86;100.00
54038;BME280;39954;48.844;9.726;2023-07-02T03:34:15;95591.75;;;12.95;100.00
54038;BME280;39954;48.844;9.726;2023-07-02T03:35:17;95594.59;;;12.92;100.00
54038;BME280;39954;48.844;9.726;2023-07-02T03:36:22;95597.44;;;12.89;100.00
54038;BME280;39954;48.844;9.726;2023-07-02T03:37:26;95586.28;;;12.87;100.00
54038;BME280;39954;48.844;9.726;2023-07-02T03:38:28;95592.59;;;12.95;100.00
54038;BME280;39954;48.844;9.726;2023-07-02T03:39:33;95597.19;;;12.92;100.00
54038;BME280;39954;48.844;9.726;2023-07-02T03:40:35;95589.59;;;12.89;100.00
54038;BME280;39954;48.844;9.726;2023-07-02T03:41:41;95595.75;;;12.88;100.00
54038;BME280;39954;48.844;9.726;2023-07-02T03:42:46;95596.47;;;12.90;100.00
54038;BME280;39954;48.844;9.726;2023-07-02T03:43:51;95590.94;;;12.94;100.00
54038;BME280;39954;48.844;9.726;2023-07-02T03:44:53;95589.59;;;12.89;100.00
54038;BME280;39954;48.844;9.726;2023-07-02T03:45:58;95590.53;;;12.88;100.00
54038;BME280;39954;48.844;9.726;2023-07-02T03:47:00;95592.22;;;12.89;100.00
54038;BME280;39954;48.844;9.726;2023-07-02T03:48:05;95598.25;;;12.89;100.00
54038;BME280;39954;48.844;9.726;2023-07-02T03:49:07;95606.22;;;12.99;100.00
54038;BME280;39954;48.844;9.726;2023-07-02T03:50:12;95603.00;;;12.95;100.00
54038;BME280;39954;48.844;9.726;2023-07-02T03:51:15;95605.97;;;13.02;100.00
54038;BME280;39954;48.844;9.726;2023-07-02T03:52:19;95617.84;;;12.95;100.00
54038;BME280;39954;48.844;9.726;2023-07-02T03:53:21;95611.19;;;13.02;100.00
54038;BME280;39954;48.844;9.726;2023-07-02T03:54:26;95611.19;;;13.02;100.00
54038;BME280;39954;48.844;9.726;2023-07-02T03:55:28;95615.25;;;13.06;100.00
54038;BME280;39954;48.844;9.726;2023-07-02T03:56:33;95615.50;;;13.03;100.00
54038;BME280;39954;48.844;9.726;2023-07-02T03:57:35;95613.34;;;12.97;100.00
54038;BME280;39954;48.844;9.726;2023-07-02T03:58:43;95619.53;;;13.07;100.00
54038;BME280;39954;48.844;9.726;2023-07-02T03:59:45;95621.91;;;13.10;100.00
54038;BME280;39954;48.844;9.726;2023-07-02T04:00:50;95624.66;;;13.09;100.00
54038;BME280;39954;48.844;9.726;2023-07-02T04:01:52;95618.19;;;13.02;100.00
54038;BME280;39954;48.844;9.726;2023-07-02T04:02:58;95629.47;;;13.02;100.00
54038;BME280;39954;48.844;9.726;2023-07-02T04:04:00;95628.03;;;12.98;100.00
54038;BME280;39954;48.844;9.726;2023-07-02T04:05:05;95638.88;;;12.81;100.00
54038;BME280;39954;48.844;9.726;2023-07-02T04:06:08;95637.47;;;12.88;100.00
54038;BME280;39954;48.844;9.726;2023-07-02T04:07:12;95637.03;;;12.70;100.00
54038;BME280;39954;48.844;9.726;2023-07-02T04:08:15;95643.22;;;12.69;100.00
54038;BME280;39954;48.844;9.726;2023-07-02T04:09:19;95639.22;;;12.52;100.00
54038;BME280;39954;48.844;9.726;2023-07-02T04:10:22;95649.34;;;12.44;100.00
54038;BME280;39954;48.844;9.726;2023-07-02T04:11:27;95646.44;;;12.36;100.00
54038;BME280;39954;48.844;9.726;2023-07-02T04:12:30;95644.28;;;12.29;100.00
54038;BME280;39954;48.844;9.726;2023-07-02T04:13:36;95648.97;;;12.24;100.00
54038;BME280;39954;48.844;9.726;2023-07-02T04:14:41;95653.91;;;12.16;100.00
54038;BME280;39954;48.844;9.726;2023-07-02T04:15:47;95655.53;;;12.17;100.00
54038;BME280;39954;48.844;9.726;2023-07-02T04:16:50;95669.22;;;12.08;100.00
54038;BME280;39954;48.844;9.726;2023-07-02T04:17:56;95657.41;;;12.15;100.00
54038;BME280;39954;48.844;9.726;2023-07-02T04:18:59;95661.19;;;12.11;100.00
54038;BME280;39954;48.844;9.726;2023-07-02T04:20:05;95667.97;;;12.14;100.00
54038;BME280;39954;48.844;9.726;2023-07-02T04:21:10;95659.94;;;12.04;100.00
54038;BME280;39954;48.844;9.726;2023-07-02T04:22:15;95654.84;;;12.02;100.00
54038;BME280;39954;48.844;9.726;2023-07-02T04:23:18;95665.38;;;12.01;100.00
54038;BME280;39954;48.844;9.726;2023-07-02T04:24:24;95662.53;;;12.04;100.00
54038;BME280;39954;48.844;9.726;2023-07-02T04:25:28;95659.44;;;11.99;100.00
54038;BME280;39954;48.844;9.726;2023-07-02T04:26:53;95650.69;;;12.00;100.00
54038;BME280;39954;48.844;9.726;2023-07-02T04:28:16;95661.84;;;12.02;100.00
54038;BME280;39954;48.844;9.726;2023-07-02T04:29:22;95665.28;;;12.02;100.00
54038;BME280;39954;48.844;9.726;2023-07-02T04:30:27;95662.97;;;12.11;100.00
54038;BME280;39954;48.844;9.726;2023-07-02T04:31:33;95659.03;;;12.05;100.00
54038;BME280;39954;48.844;9.726;2023-07-02T04:32:36;95671.69;;;12.09;100.00
54038;BME280;39954;48.844;9.726;2023-07-02T04:33:41;95665.66;;;12.09;100.00
54038;BME280;39954;48.844;9.726;2023-07-02T04:34:44;95670.88;;;12.09;100.00
54038;BME280;39954;48.844;9.726;2023-07-02T04:35:50;95687.53;;;12.06;100.00
54038;BME280;39954;48.844;9.726;2023-07-02T04:36:52;95673.59;;;12.07;100.00
54038;BME280;39954;48.844;9.726;2023-07-02T04:37:58;95677.03;;;12.08;100.00
54038;BME280;39954;48.844;9.726;2023-07-02T04:39:01;95678.91;;;12.06;100.00
54038;BME280;39954;48.844;9.726;2023-07-02T04:40:08;95676.09;;;12.09;100.00
54038;BME280;39954;48.844;9.726;2023-07-02T04:41:12;95674.00;;;12.14;100.00
54038;BME280;39954;48.844;9.726;2023-07-02T04:42:17;95681.59;;;12.17;100.00
54038;BME280;39954;48.844;9.726;2023-07-02T04:43:20;95679.13;;;12.16;100.00
54038;BME280;39954;48.844;9.726;2023-07-02T04:44:26;95673.56;;;12.20;100.00
54038;BME280;39954;48.844;9.726;2023-07-02T04:45:34;95682.13;;;12.22;100.00
54038;BME280;39954;48.844;9.726;2023-07-02T04:46:40;95677.94;;;12.20;100.00
54038;BME280;39954;48.844;9.726;2023-07-02T04:47:43;95679.81;;;12.18;100.00
54038;BME280;39954;48.844;9.726;2023-07-02T04:48:49;95689.84;;;12.24;100.00
54038;BME280;39954;48.844;9.726;2023-07-02T04:49:52;95677.13;;;12.19;100.00
54038;BME280;39954;48.844;9.726;2023-07-02T04:50:57;95683.16;;;12.20;100.00
54038;BME280;39954;48.844;9.726;2023-07-02T04:52:00;95674.22;;;12.24;100.00
54038;BME280;39954;48.844;9.726;2023-07-02T04:53:05;95686.38;;;12.23;100.00
54038;BME280;39954;48.844;9.726;2023-07-02T04:54:08;95680.88;;;12.15;100.00
54038;BME280;39954;48.844;9.726;2023-07-02T04:55:14;95683.16;;;12.20;100.00
54038;BME280;39954;48.844;9.726;2023-07-02T04:56:16;95684.09;;;12.19;100.00
54038;BME280;39954;48.844;9.726;2023-07-02T04:57:22;95680.56;;;12.20;100.00
54038;BME280;39954;48.844;9.726;2023-07-02T04:58:25;95684.41;;;12.14;100.00
54038;BME280;39954;48.844;9.726;2023-07-02T04:59:30;95676.50;;;12.16;100.00
54038;BME280;39954;48.844;9.726;2023-07-02T05:00:36;95686.81;;;12.17;100.00
54038;BME280;39954;48.844;9.726;2023-07-02T05:01:41;95683.16;;;12.20;100.00
54038;BME280;39954;48.844;9.726;2023-07-02T05:02:45;95684.09;;;12.19;100.00
54038;BME280;39954;48.844;9.726;2023-07-02T05:03:50;95689.63;;;12.27;100.00
54038;BME280;39954;48.844;9.726;2023-07-02T05:04:53;95686.16;;;12.26;100.00
54038;BME280;39954;48.844;9.726;2023-07-02T05:05:58;95685.13;;;12.29;100.00
54038;BME280;39954;48.844;9.726;2023-07-02T05:07:01;95685.97;;;12.29;100.00
54038;BME280;39954;48.844;9.726;2023-07-02T05:08:07;95679.81;;;12.30;100.00
54038;BME280;39954;48.844;9.726;2023-07-02T05:09:09;95685.97;;;12.29;100.00
54038;BME280;39954;48.844;9.726;2023-07-02T05:10:15;95682.41;;;12.30;100.00
54038;BME280;39954;48.844;9.726;2023-07-02T05:11:18;95681.47;;;12.31;100.00
54038;BME280;39954;48.844;9.726;2023-07-02T05:12:23;95687.41;;;12.34;100.00
54038;BME280;39954;48.844;9.726;2023-07-02T05:13:26;95682.94;;;12.36;100.00
54038;BME280;39954;48.844;9.726;2023-07-02T05:14:31;95692.84;;;12.30;100.00
54038;BME280;39954;48.844;9.726;2023-07-02T05:15:37;95692.63;;;12.34;100.00
54038;BME280;39954;48.844;9.726;2023-07-02T05:16:44;95704.00;;;12.32;100.00
54038;BME280;39954;48.844;9.726;2023-07-02T05:17:47;95698.78;;;12.32;100.00
54038;BME280;39954;48.844;9.726;2023-07-02T05:18:52;95696.88;;;12.35;100.00
54038;BME280;39954;48.844;9.726;2023-07-02T05:19:55;95699.38;;;12.36;100.00
54038;BME280;39954;48.844;9.726;2023-07-02T05:21:00;95700.81;;;12.40;100.00
54038;BME280;39954;48.844;9.726;2023-07-02T05:22:03;95693.88;;;12.41;100.00
54038;BME280;39954;48.844;9.726;2023-07-02T05:23:09;95697.31;;;12.41;100.00
54038;BME280;39954;48.844;9.726;2023-07-02T05:24:12;95690.59;;;12.50;100.00
54038;BME280;39954;48.844;9.726;2023-07-02T05:25:18;95699.69;;;12.44;100.00
54038;BME280;39954;48.844;9.726;2023-07-02T05:26:20;95704.38;;;12.52;100.00
54038;BME280;39954;48.844;9.726;2023-07-02T05:27:26;95700.06;;;12.51;100.00
54038;BME280;39954;48.844;9.726;2023-07-02T05:28:28;95700.81;;;12.53;100.00
54038;BME280;39954;48.844;9.726;2023-07-02T05:29:34;95703.72;;;12.61;100.00
54038;BME280;39954;48.844;9.726;2023-07-02T05:30:39;95703.81;;;12.60;100.00
54038;BME280;39954;48.844;9.726;2023-07-02T05:31:45;95706.41;;;12.60;100.00
54038;BME280;39954;48.844;9.726;2023-07-02T05:32:48;95711.84;;;12.57;100.00
54038;BME280;39954;48.844;9.726;2023-07-02T05:33:54;95715.28;;;12.57;100.00
54038;BME280;39954;48.844;9.726;2023-07-02T05:34:56;95714.13;;;12.61;100.00
54038;BME280;39954;48.844;9.726;2023-07-02T05:36:02;95714.88;;;12.63;100.00